EXS75CX EGGD-LFLB
Flight info
| Callsign | EXS75CX |
|---|---|
| Flight time | N/A |
| Altitude | 35000 |
| Route | HAWFA DCT NUCHU L607 ALHAD DCT MID UL612 OGULO DCT OKASI DCT OKEKO DCT OKIRA DCT MOU DCT FEDZI |
| Aircraft | B738/M-SDE2E3FGHIRWXY/LB1 |
Departure
| Time | N/A |
|---|---|
| Airport | Bristol Airport (EGGD) |
Arrival
| Time | 2026-04-28 11:27 |
|---|---|
| Airport | Chambéry Aix les Bains airport (LFLB) |
| Time | Latitude | Longitude | Altitude | Speed | Heading |
|---|---|---|---|---|---|
| 2026-04-28 09:45 | 51.51361 | -2.20833 | 15996 ft | 365 kts | 97° |
| 2026-04-28 09:45 | 51.51032 | -2.16772 | 16636 ft | 370 kts | 97° |
| 2026-04-28 09:46 | 51.50687 | -2.12656 | 17254 ft | 374 kts | 98° |
| 2026-04-28 09:46 | 51.50336 | -2.08501 | 17892 ft | 377 kts | 98° |
| 2026-04-28 09:46 | 51.49984 | -2.04307 | 18524 ft | 381 kts | 98° |
| 2026-04-28 09:46 | 51.49631 | -2.00078 | 19123 ft | 384 kts | 97° |
| 2026-04-28 09:47 | 51.49275 | -1.95808 | 19696 ft | 388 kts | 97° |
| 2026-04-28 09:47 | 51.48915 | -1.91502 | 20275 ft | 391 kts | 98° |
| 2026-04-28 09:47 | 51.48550 | -1.87155 | 20830 ft | 395 kts | 98° |
| 2026-04-28 09:47 | 51.48181 | -1.82769 | 21366 ft | 398 kts | 98° |
| 2026-04-28 09:48 | 51.47808 | -1.78349 | 21891 ft | 402 kts | 98° |
| 2026-04-28 09:48 | 51.47430 | -1.73899 | 22402 ft | 405 kts | 98° |
| 2026-04-28 09:48 | 51.47047 | -1.69412 | 22898 ft | 408 kts | 98° |
| 2026-04-28 09:48 | 51.46585 | -1.64910 | 23385 ft | 411 kts | 101° |
| 2026-04-28 09:49 | 51.45972 | -1.60419 | 23852 ft | 414 kts | 103° |
| 2026-04-28 09:49 | 51.45320 | -1.55911 | 24311 ft | 416 kts | 103° |
| 2026-04-28 09:49 | 51.44677 | -1.51373 | 24771 ft | 419 kts | 103° |
| 2026-04-28 09:49 | 51.44043 | -1.46797 | 25198 ft | 422 kts | 102° |
| 2026-04-28 09:50 | 51.43408 | -1.42196 | 25618 ft | 425 kts | 102° |
| 2026-04-28 09:50 | 51.42767 | -1.37559 | 26024 ft | 427 kts | 103° |
| 2026-04-28 09:50 | 51.42119 | -1.32896 | 26417 ft | 430 kts | 103° |
| 2026-04-28 09:50 | 51.41468 | -1.28214 | 26809 ft | 432 kts | 103° |
| 2026-04-28 09:51 | 51.40809 | -1.23505 | 27180 ft | 435 kts | 103° |
| 2026-04-28 09:51 | 51.40020 | -1.18819 | 27531 ft | 437 kts | 111° |
| 2026-04-28 09:51 | 51.38688 | -1.14435 | 27881 ft | 439 kts | 122° |
| 2026-04-28 09:51 | 51.36878 | -1.10498 | 28232 ft | 440 kts | 133° |
| 2026-04-28 09:52 | 51.34697 | -1.07052 | 28566 ft | 442 kts | 137° |
| 2026-04-28 09:52 | 51.32451 | -1.03673 | 28884 ft | 445 kts | 137° |
| 2026-04-28 09:52 | 51.30186 | -1.00279 | 29183 ft | 447 kts | 137° |
| 2026-04-28 09:52 | 51.28026 | -0.97021 | 29470 ft | 449 kts | 137° |
| 2026-04-28 09:53 | 51.25758 | -0.93572 | 29772 ft | 451 kts | 136° |
| 2026-04-28 09:53 | 51.23485 | -0.90099 | 30058 ft | 453 kts | 136° |
| 2026-04-28 09:53 | 51.21209 | -0.86611 | 30330 ft | 455 kts | 136° |
| 2026-04-28 09:53 | 51.18918 | -0.83101 | 30600 ft | 457 kts | 136° |
| 2026-04-28 09:54 | 51.16620 | -0.79585 | 30866 ft | 459 kts | 136° |
| 2026-04-28 09:54 | 51.14309 | -0.76055 | 31132 ft | 461 kts | 136° |
| 2026-04-28 09:54 | 51.11996 | -0.72528 | 31407 ft | 461 kts | 136° |
| 2026-04-28 09:54 | 51.09678 | -0.68998 | 31739 ft | 461 kts | 136° |
| 2026-04-28 09:55 | 51.07365 | -0.65483 | 32137 ft | 459 kts | 137° |
| 2026-04-28 09:55 | 51.05026 | -0.62049 | 32506 ft | 457 kts | 141° |
| 2026-04-28 09:55 | 51.02462 | -0.59094 | 32803 ft | 456 kts | 147° |
| 2026-04-28 09:55 | 50.99815 | -0.56329 | 33087 ft | 456 kts | 147° |
| 2026-04-28 09:56 | 50.97155 | -0.53585 | 33362 ft | 456 kts | 147° |
| 2026-04-28 09:56 | 50.94503 | -0.50835 | 33685 ft | 455 kts | 147° |
| 2026-04-28 09:56 | 50.91868 | -0.48077 | 34006 ft | 453 kts | 147° |
| 2026-04-28 09:56 | 50.89280 | -0.45348 | 34266 ft | 453 kts | 147° |
| 2026-04-28 09:57 | 50.86622 | -0.42534 | 34493 ft | 454 kts | 147° |
| 2026-04-28 09:57 | 50.84001 | -0.39757 | 34773 ft | 453 kts | 147° |
| 2026-04-28 09:57 | 50.81416 | -0.37021 | 35020 ft | 453 kts | 147° |
| 2026-04-28 09:57 | 50.78781 | -0.34237 | 34989 ft | 457 kts | 147° |
| 2026-04-28 09:58 | 50.73494 | -0.28664 | 34985 ft | 455 kts | 147° |
| 2026-04-28 09:58 | 50.68275 | -0.23182 | 35004 ft | 449 kts | 147° |
| 2026-04-28 09:59 | 50.63037 | -0.17696 | 35008 ft | 449 kts | 147° |
| 2026-04-28 09:59 | 50.57877 | -0.12302 | 35007 ft | 450 kts | 147° |
| 2026-04-28 10:00 | 50.52619 | -0.06819 | 35017 ft | 458 kts | 147° |
| 2026-04-28 10:00 | 50.47298 | -0.01284 | 35002 ft | 459 kts | 147° |
| 2026-04-28 10:01 | 50.42053 | 0.04163 | 35006 ft | 459 kts | 147° |
| 2026-04-28 10:01 | 50.36723 | 0.09699 | 35000 ft | 459 kts | 147° |
| 2026-04-28 10:02 | 50.31404 | 0.15218 | 35006 ft | 458 kts | 147° |
| 2026-04-28 10:02 | 50.26089 | 0.20724 | 34993 ft | 457 kts | 147° |
| 2026-04-28 10:03 | 50.20791 | 0.26198 | 35007 ft | 456 kts | 147° |
| 2026-04-28 10:03 | 50.15491 | 0.31646 | 35001 ft | 455 kts | 147° |
| 2026-04-28 10:04 | 50.10206 | 0.37059 | 35001 ft | 454 kts | 147° |
| 2026-04-28 10:04 | 50.04925 | 0.42457 | 35001 ft | 454 kts | 147° |
| 2026-04-28 10:05 | 49.99654 | 0.47833 | 35008 ft | 453 kts | 147° |
| 2026-04-28 10:05 | 49.94381 | 0.53197 | 34996 ft | 453 kts | 147° |
| 2026-04-28 10:06 | 49.89104 | 0.58552 | 34999 ft | 453 kts | 147° |
| 2026-04-28 10:06 | 49.83893 | 0.64057 | 35003 ft | 454 kts | 142° |
| 2026-04-28 10:07 | 49.79000 | 0.70231 | 35001 ft | 454 kts | 140° |
| 2026-04-28 10:07 | 49.74135 | 0.76491 | 34998 ft | 455 kts | 141° |
| 2026-04-28 10:08 | 49.69264 | 0.82651 | 34997 ft | 456 kts | 141° |
| 2026-04-28 10:08 | 49.64326 | 0.88826 | 34996 ft | 457 kts | 141° |
| 2026-04-28 10:09 | 49.59376 | 0.94990 | 35002 ft | 458 kts | 141° |
| 2026-04-28 10:09 | 49.54490 | 1.01061 | 35005 ft | 458 kts | 141° |
| 2026-04-28 10:10 | 49.49529 | 1.07212 | 35005 ft | 458 kts | 141° |
| 2026-04-28 10:10 | 49.44560 | 1.13359 | 35008 ft | 458 kts | 141° |
| 2026-04-28 10:11 | 49.39591 | 1.19487 | 34998 ft | 458 kts | 142° |
| 2026-04-28 10:11 | 49.34619 | 1.25600 | 35003 ft | 458 kts | 142° |
| 2026-04-28 10:12 | 49.29654 | 1.31692 | 34999 ft | 457 kts | 142° |
| 2026-04-28 10:12 | 49.24694 | 1.37784 | 35009 ft | 457 kts | 141° |
| 2026-04-28 10:13 | 49.19737 | 1.43861 | 35002 ft | 457 kts | 141° |
| 2026-04-28 10:13 | 49.14761 | 1.49887 | 34998 ft | 457 kts | 142° |
| 2026-04-28 10:14 | 49.09782 | 1.55920 | 35010 ft | 457 kts | 142° |
| 2026-04-28 10:14 | 49.04798 | 1.61961 | 35005 ft | 458 kts | 142° |
| 2026-04-28 10:15 | 48.99849 | 1.67944 | 35005 ft | 458 kts | 142° |
| 2026-04-28 10:15 | 48.94851 | 1.73969 | 35002 ft | 458 kts | 142° |
| 2026-04-28 10:16 | 48.89845 | 1.79984 | 35001 ft | 459 kts | 142° |
| 2026-04-28 10:16 | 48.84836 | 1.85987 | 35004 ft | 459 kts | 142° |
| 2026-04-28 10:17 | 48.79813 | 1.91993 | 35002 ft | 460 kts | 142° |
| 2026-04-28 10:17 | 48.74782 | 1.97994 | 34999 ft | 461 kts | 142° |
| 2026-04-28 10:18 | 48.69846 | 2.03865 | 34998 ft | 462 kts | 142° |
| 2026-04-28 10:18 | 48.64787 | 2.09869 | 35000 ft | 462 kts | 142° |
| 2026-04-28 10:19 | 48.60539 | 2.14900 | 35006 ft | 463 kts | 142° |
| 2026-04-28 10:19 | 48.54781 | 2.22127 | 35002 ft | 464 kts | 136° |
| 2026-04-28 10:20 | 48.50262 | 2.29076 | 34997 ft | 464 kts | 134° |
| 2026-04-28 10:20 | 48.45755 | 2.36048 | 34999 ft | 464 kts | 135° |
| 2026-04-28 10:21 | 48.41976 | 2.41783 | 34998 ft | 464 kts | 135° |
| 2026-04-28 10:21 | 48.37408 | 2.48650 | 34995 ft | 464 kts | 135° |
| 2026-04-28 10:22 | 48.32848 | 2.55492 | 35001 ft | 463 kts | 135° |
| 2026-04-28 10:22 | 48.28132 | 2.62065 | 34986 ft | 462 kts | 144° |
| 2026-04-28 10:23 | 48.22486 | 2.66584 | 35014 ft | 460 kts | 158° |
| 2026-04-28 10:23 | 48.16738 | 2.70795 | 35010 ft | 460 kts | 151° |
| 2026-04-28 10:24 | 48.11157 | 2.75497 | 35009 ft | 460 kts | 152° |
| 2026-04-28 10:24 | 48.05446 | 2.79823 | 35006 ft | 460 kts | 156° |
| 2026-04-28 10:25 | 47.99555 | 2.83520 | 35004 ft | 460 kts | 158° |
| 2026-04-28 10:25 | 47.93639 | 2.87169 | 35002 ft | 460 kts | 158° |
| 2026-04-28 10:26 | 47.87728 | 2.90875 | 35005 ft | 461 kts | 158° |
| 2026-04-28 10:26 | 47.81824 | 2.94609 | 35007 ft | 461 kts | 158° |
| 2026-04-28 10:27 | 47.75916 | 2.98343 | 35002 ft | 462 kts | 158° |
| 2026-04-28 10:27 | 47.71110 | 3.01371 | 35002 ft | 462 kts | 158° |
| 2026-04-28 10:29 | 47.57907 | 3.09656 | 35005 ft | 462 kts | 158° |
| 2026-04-28 10:30 | 47.51978 | 3.13360 | 35003 ft | 463 kts | 158° |
| 2026-04-28 10:30 | 47.46046 | 3.17053 | 35003 ft | 463 kts | 158° |
| 2026-04-28 10:31 | 47.40112 | 3.20740 | 35002 ft | 463 kts | 158° |
| 2026-04-28 10:31 | 47.34178 | 3.24419 | 34997 ft | 463 kts | 158° |
| 2026-04-28 10:32 | 47.28281 | 3.28067 | 35001 ft | 463 kts | 158° |
| 2026-04-28 10:32 | 47.22348 | 3.31729 | 34994 ft | 462 kts | 158° |
| 2026-04-28 10:33 | 47.16413 | 3.35382 | 35001 ft | 462 kts | 158° |
| 2026-04-28 10:33 | 47.10480 | 3.39027 | 35001 ft | 462 kts | 158° |
| 2026-04-28 10:34 | 47.04545 | 3.42664 | 35004 ft | 462 kts | 158° |
| 2026-04-28 10:34 | 46.98613 | 3.46286 | 35001 ft | 462 kts | 158° |
| 2026-04-28 10:35 | 46.92672 | 3.49899 | 34998 ft | 462 kts | 158° |
| 2026-04-28 10:35 | 46.86736 | 3.53502 | 35000 ft | 462 kts | 158° |
| 2026-04-28 10:36 | 46.80798 | 3.57099 | 35004 ft | 462 kts | 158° |
| 2026-04-28 10:36 | 46.74951 | 3.60636 | 34975 ft | 440 kts | 158° |
| 2026-04-28 10:36 | 46.72171 | 3.62313 | 34977 ft | 425 kts | 158° |
| 2026-04-28 10:37 | 46.69461 | 3.63930 | 34645 ft | 419 kts | 159° |
| 2026-04-28 10:37 | 46.66765 | 3.65455 | 34323 ft | 414 kts | 160° |
| 2026-04-28 10:37 | 46.64080 | 3.66934 | 33924 ft | 411 kts | 160° |
| 2026-04-28 10:37 | 46.61414 | 3.68394 | 33549 ft | 408 kts | 160° |
| 2026-04-28 10:38 | 46.58769 | 3.69847 | 33180 ft | 405 kts | 160° |
| 2026-04-28 10:38 | 46.56174 | 3.71278 | 32797 ft | 403 kts | 160° |
| 2026-04-28 10:38 | 46.53529 | 3.72740 | 32416 ft | 400 kts | 160° |
| 2026-04-28 10:38 | 46.50972 | 3.74155 | 32052 ft | 398 kts | 160° |
| 2026-04-28 10:39 | 46.48395 | 3.75581 | 31657 ft | 395 kts | 160° |
| 2026-04-28 10:39 | 46.45838 | 3.76995 | 31300 ft | 393 kts | 160° |
| 2026-04-28 10:39 | 46.43295 | 3.78400 | 30936 ft | 390 kts | 160° |
| 2026-04-28 10:39 | 46.40763 | 3.79796 | 30579 ft | 388 kts | 160° |
| 2026-04-28 10:40 | 46.38298 | 3.81347 | 30202 ft | 386 kts | 149° |
| 2026-04-28 10:40 | 46.36202 | 3.83751 | 29857 ft | 384 kts | 133° |
| 2026-04-28 10:40 | 46.34619 | 3.86828 | 29498 ft | 381 kts | 119° |
| 2026-04-28 10:40 | 46.33391 | 3.90205 | 29150 ft | 378 kts | 117° |
| 2026-04-28 10:41 | 46.32205 | 3.93591 | 28765 ft | 376 kts | 117° |
| 2026-04-28 10:41 | 46.31029 | 3.96958 | 28401 ft | 374 kts | 117° |
| 2026-04-28 10:41 | 46.29890 | 4.00185 | 28048 ft | 372 kts | 117° |
| 2026-04-28 10:41 | 46.28723 | 4.03461 | 27691 ft | 369 kts | 117° |
| 2026-04-28 10:42 | 46.27543 | 4.06746 | 27328 ft | 367 kts | 118° |
| 2026-04-28 10:42 | 46.26366 | 4.10008 | 26971 ft | 365 kts | 118° |
| 2026-04-28 10:42 | 46.25189 | 4.13256 | 26602 ft | 364 kts | 118° |
| 2026-04-28 10:42 | 46.24018 | 4.16482 | 26246 ft | 361 kts | 118° |
| 2026-04-28 10:43 | 46.22855 | 4.19681 | 25893 ft | 359 kts | 118° |
| 2026-04-28 10:43 | 46.21696 | 4.22867 | 25545 ft | 357 kts | 118° |
| 2026-04-28 10:43 | 46.20544 | 4.26029 | 25194 ft | 355 kts | 118° |
| 2026-04-28 10:43 | 46.19398 | 4.29172 | 24840 ft | 353 kts | 118° |
| 2026-04-28 10:44 | 46.18258 | 4.32298 | 24502 ft | 351 kts | 118° |
| 2026-04-28 10:44 | 46.17120 | 4.35410 | 24149 ft | 349 kts | 118° |
| 2026-04-28 10:44 | 46.15988 | 4.38500 | 23801 ft | 348 kts | 118° |
| 2026-04-28 10:44 | 46.15054 | 4.41700 | 23442 ft | 346 kts | 104° |
| 2026-04-28 10:45 | 46.14706 | 4.45113 | 23082 ft | 345 kts | 90° |
| 2026-04-28 10:45 | 46.14903 | 4.48548 | 22730 ft | 343 kts | 82° |
| 2026-04-28 10:45 | 46.15256 | 4.51942 | 22380 ft | 341 kts | 81° |
| 2026-04-28 10:45 | 46.15618 | 4.55316 | 22035 ft | 340 kts | 81° |
| 2026-04-28 10:46 | 46.15976 | 4.58674 | 21695 ft | 338 kts | 81° |
| 2026-04-28 10:46 | 46.16326 | 4.62023 | 21358 ft | 337 kts | 81° |
| 2026-04-28 10:46 | 46.16669 | 4.65358 | 21017 ft | 335 kts | 81° |
| 2026-04-28 10:46 | 46.17005 | 4.68672 | 20683 ft | 333 kts | 82° |
| 2026-04-28 10:47 | 46.17336 | 4.71972 | 20351 ft | 331 kts | 82° |
| 2026-04-28 10:47 | 46.17663 | 4.75256 | 20017 ft | 330 kts | 82° |
| 2026-04-28 10:47 | 46.17987 | 4.78523 | 19687 ft | 328 kts | 82° |
| 2026-04-28 10:47 | 46.18308 | 4.81771 | 19360 ft | 327 kts | 82° |
| 2026-04-28 10:48 | 46.18626 | 4.85008 | 19031 ft | 325 kts | 82° |
| 2026-04-28 10:48 | 46.18942 | 4.88228 | 18704 ft | 323 kts | 82° |
| 2026-04-28 10:48 | 46.19252 | 4.91393 | 18382 ft | 322 kts | 82° |
| 2026-04-28 10:48 | 46.19562 | 4.94580 | 18059 ft | 320 kts | 82° |
| 2026-04-28 10:49 | 46.19871 | 4.97753 | 17736 ft | 319 kts | 82° |
| 2026-04-28 10:49 | 46.20167 | 5.00814 | 17419 ft | 317 kts | 82° |
| 2026-04-28 10:49 | 46.20472 | 5.03961 | 17097 ft | 316 kts | 82° |
| 2026-04-28 10:49 | 46.20774 | 5.07101 | 16786 ft | 315 kts | 82° |
| 2026-04-28 10:50 | 46.21075 | 5.10221 | 16463 ft | 314 kts | 82° |
| 2026-04-28 10:50 | 46.21277 | 5.12325 | 16248 ft | 313 kts | 82° |
| 2026-04-28 10:50 | 46.21669 | 5.16436 | 15827 ft | 311 kts | 82° |
| 2026-04-28 10:50 | 46.21962 | 5.19520 | 15510 ft | 310 kts | 83° |
| 2026-04-28 10:51 | 46.21856 | 5.22593 | 15168 ft | 308 kts | 108° |
| 2026-04-28 10:51 | 46.20850 | 5.25273 | 14881 ft | 304 kts | 132° |
| 2026-04-28 10:51 | 46.19228 | 5.27168 | 14585 ft | 300 kts | 153° |
| 2026-04-28 10:51 | 46.17348 | 5.28452 | 14301 ft | 298 kts | 156° |
| 2026-04-28 10:52 | 46.15469 | 5.29698 | 13979 ft | 297 kts | 156° |
| 2026-04-28 10:52 | 46.13603 | 5.30949 | 13680 ft | 296 kts | 156° |
| 2026-04-28 10:52 | 46.11738 | 5.32209 | 13364 ft | 295 kts | 155° |
| 2026-04-28 10:52 | 46.09918 | 5.33567 | 13054 ft | 295 kts | 148° |
| 2026-04-28 10:53 | 46.08239 | 5.35251 | 12757 ft | 294 kts | 144° |
| 2026-04-28 10:53 | 46.06613 | 5.37024 | 12452 ft | 293 kts | 143° |
| 2026-04-28 10:53 | 46.04996 | 5.38798 | 12147 ft | 292 kts | 143° |
| 2026-04-28 10:53 | 46.03375 | 5.40557 | 11845 ft | 291 kts | 144° |
| 2026-04-28 10:54 | 46.01757 | 5.42292 | 11538 ft | 290 kts | 144° |
| 2026-04-28 10:54 | 46.00134 | 5.44017 | 11235 ft | 290 kts | 144° |
| 2026-04-28 10:54 | 45.98522 | 5.45722 | 10925 ft | 289 kts | 144° |
| 2026-04-28 10:54 | 45.96902 | 5.47423 | 10616 ft | 288 kts | 144° |
| 2026-04-28 10:55 | 45.95289 | 5.49118 | 10322 ft | 287 kts | 144° |
| 2026-04-28 10:55 | 45.93687 | 5.50800 | 10106 ft | 282 kts | 144° |
| 2026-04-28 10:55 | 45.92139 | 5.52425 | 9921 ft | 277 kts | 144° |
| 2026-04-28 10:55 | 45.90584 | 5.54054 | 9630 ft | 277 kts | 144° |
| 2026-04-28 10:56 | 45.89035 | 5.55689 | 9350 ft | 276 kts | 141° |
| 2026-04-28 10:56 | 45.87859 | 5.57828 | 9047 ft | 276 kts | 112° |
| 2026-04-28 10:56 | 45.87416 | 5.60460 | 8930 ft | 268 kts | 97° |
| 2026-04-28 10:56 | 45.87179 | 5.63081 | 8793 ft | 262 kts | 97° |
| 2026-04-28 10:57 | 45.86947 | 5.65604 | 8676 ft | 255 kts | 98° |
| 2026-04-28 10:57 | 45.86781 | 5.68131 | 8547 ft | 248 kts | 86° |
| 2026-04-28 10:57 | 45.86996 | 5.70513 | 8455 ft | 240 kts | 79° |
| 2026-04-28 10:57 | 45.87297 | 5.72859 | 8361 ft | 239 kts | 79° |
| 2026-04-28 10:58 | 45.87586 | 5.75198 | 8193 ft | 237 kts | 80° |
| 2026-04-28 10:58 | 45.87857 | 5.77523 | 7933 ft | 235 kts | 81° |
| 2026-04-28 10:58 | 45.88112 | 5.79796 | 7665 ft | 226 kts | 81° |
| 2026-04-28 10:58 | 45.88355 | 5.81994 | 7328 ft | 220 kts | 81° |
| 2026-04-28 10:59 | 45.88461 | 5.84157 | 6918 ft | 217 kts | 102° |
| 2026-04-28 10:59 | 45.87688 | 5.85908 | 6542 ft | 208 kts | 150° |
| 2026-04-28 10:59 | 45.86385 | 5.86287 | 6494 ft | 182 kts | 185° |
| 2026-04-28 10:59 | 45.85158 | 5.86280 | 6488 ft | 174 kts | 178° |
| 2026-04-28 11:00 | 45.83931 | 5.86382 | 6330 ft | 180 kts | 178° |
| 2026-04-28 11:00 | 45.82679 | 5.86486 | 5989 ft | 179 kts | 178° |
| 2026-04-28 11:00 | 45.81447 | 5.86588 | 5654 ft | 176 kts | 178° |
| 2026-04-28 11:00 | 45.80231 | 5.86686 | 5305 ft | 174 kts | 178° |
| 2026-04-28 11:01 | 45.79043 | 5.86783 | 4983 ft | 170 kts | 178° |
| 2026-04-28 11:01 | 45.77869 | 5.86878 | 4632 ft | 167 kts | 178° |
| 2026-04-28 11:01 | 45.76726 | 5.86971 | 4297 ft | 163 kts | 178° |
| 2026-04-28 11:01 | 45.75620 | 5.87061 | 3972 ft | 156 kts | 179° |
| 2026-04-28 11:02 | 45.74567 | 5.87149 | 3681 ft | 149 kts | 179° |
| 2026-04-28 11:02 | 45.73535 | 5.87233 | 3443 ft | 147 kts | 178° |
| 2026-04-28 11:02 | 45.72847 | 5.87288 | 3202 ft | 151 kts | 179° |
| 2026-04-28 11:02 | 45.71806 | 5.87373 | 2912 ft | 150 kts | 179° |
| 2026-04-28 11:03 | 45.70416 | 5.87493 | 2521 ft | 151 kts | 178° |
| 2026-04-28 11:03 | 45.69376 | 5.87573 | 2198 ft | 148 kts | 179° |
| 2026-04-28 11:03 | 45.68695 | 5.87617 | 1949 ft | 148 kts | 179° |
| 2026-04-28 11:03 | 45.67678 | 5.87713 | 1635 ft | 146 kts | 178° |
| 2026-04-28 11:04 | 45.66670 | 5.87799 | 1383 ft | 145 kts | 178° |
| 2026-04-28 11:04 | 45.65655 | 5.87876 | 1114 ft | 147 kts | 179° |
| 2026-04-28 11:04 | 45.64660 | 5.87952 | 836 ft | 145 kts | 178° |
| 2026-04-28 11:04 | 45.63722 | 5.88027 | 781 ft | 122 kts | 176° |
| 2026-04-28 11:05 | 45.62792 | 5.88113 | 785 ft | 92 kts | 174° |
| 2026-04-28 11:05 | 45.62276 | 5.88193 | 908 ft | 124 kts | 173° |
| 2026-04-28 11:05 | 45.61356 | 5.88356 | 1466 ft | 146 kts | 177° |
| 2026-04-28 11:05 | 45.60217 | 5.88471 | 1942 ft | 176 kts | 176° |
| 2026-04-28 11:06 | 45.58947 | 5.88617 | 2408 ft | 191 kts | 176° |
| 2026-04-28 11:06 | 45.57545 | 5.88801 | 2944 ft | 208 kts | 176° |
| 2026-04-28 11:06 | 45.56076 | 5.88978 | 3542 ft | 217 kts | 177° |
| 2026-04-28 11:06 | 45.54552 | 5.89350 | 3975 ft | 238 kts | 160° |
| 2026-04-28 11:07 | 45.53141 | 5.90776 | 3969 ft | 259 kts | 125° |
| 2026-04-28 11:07 | 45.52603 | 5.93129 | 4143 ft | 245 kts | 88° |
| 2026-04-28 11:07 | 45.53020 | 5.95379 | 4124 ft | 240 kts | 56° |
| 2026-04-28 11:07 | 45.54280 | 5.96790 | 4086 ft | 231 kts | 15° |
| 2026-04-28 11:08 | 45.55825 | 5.96767 | 4114 ft | 224 kts | 336° |
| 2026-04-28 11:08 | 45.56999 | 5.95347 | 4047 ft | 224 kts | 297° |
| 2026-04-28 11:08 | 45.57471 | 5.93307 | 4115 ft | 218 kts | 285° |
| 2026-04-28 11:08 | 45.57863 | 5.91174 | 3969 ft | 223 kts | 283° |
| 2026-04-28 11:09 | 45.58298 | 5.89101 | 4092 ft | 215 kts | 297° |
| 2026-04-28 11:09 | 45.59224 | 5.87466 | 4267 ft | 215 kts | 326° |
| 2026-04-28 11:09 | 45.60652 | 5.86805 | 4500 ft | 222 kts | 355° |
| 2026-04-28 11:09 | 45.62218 | 5.86732 | 4721 ft | 228 kts | 358° |
| 2026-04-28 11:10 | 45.63799 | 5.86716 | 4899 ft | 226 kts | 358° |
| 2026-04-28 11:10 | 45.65371 | 5.86710 | 5110 ft | 226 kts | 359° |
| 2026-04-28 11:10 | 45.66939 | 5.86707 | 5305 ft | 226 kts | 359° |
| 2026-04-28 11:10 | 45.68511 | 5.86706 | 5502 ft | 226 kts | 359° |
| 2026-04-28 11:11 | 45.70082 | 5.86708 | 5701 ft | 226 kts | 359° |
| 2026-04-28 11:11 | 45.71656 | 5.86709 | 5901 ft | 227 kts | 359° |
| 2026-04-28 11:11 | 45.73235 | 5.86710 | 6097 ft | 227 kts | 359° |
| 2026-04-28 11:11 | 45.74819 | 5.86693 | 6303 ft | 228 kts | 353° |
| 2026-04-28 11:12 | 45.76260 | 5.85858 | 6464 ft | 230 kts | 315° |
| 2026-04-28 11:12 | 45.77060 | 5.83743 | 6506 ft | 260 kts | 279° |
| 2026-04-28 11:12 | 45.77206 | 5.81162 | 6494 ft | 263 kts | 273° |
| 2026-04-28 11:12 | 45.77343 | 5.78399 | 6511 ft | 294 kts | 275° |
| 2026-04-28 11:13 | 45.77541 | 5.75312 | 6495 ft | 327 kts | 276° |
| 2026-04-28 11:13 | 45.77801 | 5.72095 | 6468 ft | 318 kts | 277° |
| 2026-04-28 11:13 | 45.78080 | 5.69053 | 6459 ft | 301 kts | 277° |
| 2026-04-28 11:13 | 45.78355 | 5.66170 | 6458 ft | 283 kts | 277° |
| 2026-04-28 11:14 | 45.78613 | 5.63484 | 6454 ft | 262 kts | 277° |
| 2026-04-28 11:14 | 45.78854 | 5.60970 | 6453 ft | 248 kts | 278° |
| 2026-04-28 11:14 | 45.79227 | 5.58634 | 6463 ft | 235 kts | 296° |
| 2026-04-28 11:14 | 45.80266 | 5.56914 | 6490 ft | 230 kts | 326° |
| 2026-04-28 11:15 | 45.81738 | 5.56013 | 6488 ft | 232 kts | 349° |
| 2026-04-28 11:15 | 45.83350 | 5.55973 | 6486 ft | 233 kts | 5° |
| 2026-04-28 11:15 | 45.84953 | 5.56278 | 6487 ft | 232 kts | 9° |
| 2026-04-28 11:15 | 45.86422 | 5.57189 | 6474 ft | 232 kts | 41° |
| 2026-04-28 11:16 | 45.87303 | 5.59099 | 6478 ft | 235 kts | 73° |
| 2026-04-28 11:16 | 45.87574 | 5.61434 | 6495 ft | 240 kts | 85° |
| 2026-04-28 11:16 | 45.87685 | 5.63826 | 6484 ft | 240 kts | 86° |
| 2026-04-28 11:16 | 45.87787 | 5.66216 | 6473 ft | 239 kts | 86° |
| 2026-04-28 11:17 | 45.87897 | 5.68578 | 6476 ft | 236 kts | 86° |
| 2026-04-28 11:17 | 45.88014 | 5.70923 | 6474 ft | 235 kts | 85° |
| 2026-04-28 11:17 | 45.88133 | 5.73250 | 6486 ft | 233 kts | 85° |
| 2026-04-28 11:17 | 45.88233 | 5.75576 | 6477 ft | 234 kts | 92° |
| 2026-04-28 11:18 | 45.87895 | 5.77860 | 6500 ft | 236 kts | 110° |
| 2026-04-28 11:18 | 45.87231 | 5.80030 | 6471 ft | 238 kts | 119° |
| 2026-04-28 11:18 | 45.86331 | 5.82003 | 6458 ft | 236 kts | 130° |
| 2026-04-28 11:18 | 45.85186 | 5.83667 | 6467 ft | 233 kts | 141° |
| 2026-04-28 11:19 | 45.83878 | 5.85025 | 6489 ft | 232 kts | 150° |
| 2026-04-28 11:19 | 45.82390 | 5.85853 | 6501 ft | 229 kts | 168° |
| 2026-04-28 11:19 | 45.80794 | 5.86278 | 6266 ft | 241 kts | 171° |
| 2026-04-28 11:19 | 45.79090 | 5.86685 | 5875 ft | 251 kts | 173° |
| 2026-04-28 11:20 | 45.77356 | 5.86929 | 5463 ft | 254 kts | 178° |
| 2026-04-28 11:20 | 45.75566 | 5.87021 | 4952 ft | 257 kts | 179° |
| 2026-04-28 11:20 | 45.73813 | 5.87124 | 4673 ft | 249 kts | 178° |
| 2026-04-28 11:20 | 45.72120 | 5.87301 | 4489 ft | 238 kts | 177° |
| 2026-04-28 11:21 | 45.70485 | 5.87477 | 4174 ft | 234 kts | 177° |
| 2026-04-28 11:21 | 45.68898 | 5.87624 | 3551 ft | 233 kts | 181° |
| 2026-04-28 11:21 | 45.67481 | 5.86993 | 4035 ft | 200 kts | 222° |
| 2026-04-28 11:21 | 45.66806 | 5.85459 | 4730 ft | 176 kts | 255° |
| 2026-04-28 11:22 | 45.66763 | 5.83656 | 5180 ft | 200 kts | 285° |
| 2026-04-28 11:22 | 45.67509 | 5.81831 | 5234 ft | 230 kts | 320° |
| 2026-04-28 11:22 | 45.68981 | 5.81042 | 5233 ft | 231 kts | 0° |
| 2026-04-28 11:22 | 45.70491 | 5.81710 | 5226 ft | 229 kts | 25° |
| 2026-04-28 11:23 | 45.72017 | 5.82369 | 5077 ft | 231 kts | 4° |
| 2026-04-28 11:23 | 45.73610 | 5.82422 | 5033 ft | 227 kts | 358° |
| 2026-04-28 11:23 | 45.75177 | 5.82376 | 4951 ft | 229 kts | 357° |
| 2026-04-28 11:23 | 45.76837 | 5.82337 | 4507 ft | 243 kts | 0° |
| 2026-04-28 11:24 | 45.78390 | 5.83161 | 4001 ft | 250 kts | 47° |
| 2026-04-28 11:24 | 45.78766 | 5.85436 | 3613 ft | 247 kts | 120° |
| 2026-04-28 11:24 | 45.77375 | 5.86724 | 2930 ft | 259 kts | 171° |
| 2026-04-28 11:24 | 45.75605 | 5.87096 | 2836 ft | 250 kts | 175° |
| 2026-04-28 11:25 | 45.73895 | 5.87285 | 2522 ft | 242 kts | 178° |
| 2026-04-28 11:25 | 45.72276 | 5.87394 | 2194 ft | 224 kts | 179° |
| 2026-04-28 11:25 | 45.70786 | 5.87483 | 1976 ft | 205 kts | 178° |
| 2026-04-28 11:25 | 45.69426 | 5.87616 | 1742 ft | 189 kts | 178° |
| 2026-04-28 11:26 | 45.68182 | 5.87663 | 1508 ft | 173 kts | 180° |
| 2026-04-28 11:26 | 45.67042 | 5.87769 | 1314 ft | 155 kts | 178° |
| 2026-04-28 11:26 | 45.66026 | 5.87837 | 1097 ft | 145 kts | 179° |
| 2026-04-28 11:26 | 45.65058 | 5.87916 | 908 ft | 135 kts | 178° |
| 2026-04-28 11:27 | 45.64153 | 5.87990 | 784 ft | 121 kts | 176° |
| 2026-04-28 11:27 | 45.63702 | 5.88030 | 781 ft | 39 kts | 176° |
| 2026-04-28 11:27 | 45.63443 | 5.88043 | 782 ft | 36 kts | 178° |
| 2026-04-28 11:27 | 45.63216 | 5.88064 | 784 ft | 28 kts | 174° |
| 2026-04-28 11:28 | 45.63151 | 5.88173 | 783 ft | 15 kts | 86° |
| 2026-04-28 11:28 | 45.63212 | 5.88272 | 782 ft | 14 kts | 7° |
| 2026-04-28 11:28 | 45.63306 | 5.88268 | 782 ft | 11 kts | 353° |
| 2026-04-28 11:28 | 45.63381 | 5.88260 | 782 ft | 11 kts | 356° |
| 2026-04-28 11:29 | 45.63453 | 5.88255 | 782 ft | 10 kts | 356° |
| 2026-04-28 11:29 | 45.63523 | 5.88247 | 782 ft | 10 kts | 355° |
| 2026-04-28 11:29 | 45.63594 | 5.88239 | 782 ft | 10 kts | 355° |
| 2026-04-28 11:29 | 45.63666 | 5.88235 | 782 ft | 11 kts | 359° |
| 2026-04-28 11:30 | 45.63743 | 5.88233 | 782 ft | 8 kts | 356° |
| 2026-04-28 11:30 | 45.63859 | 5.88245 | 782 ft | 6 kts | 355° |
| 2026-04-28 11:30 | 45.63881 | 5.88254 | 782 ft | 1 kts | 52° |
| 2026-04-28 11:31 | 45.63884 | 5.88284 | 782 ft | 5 kts | 87° |
| 2026-04-28 11:31 | 45.63886 | 5.88325 | 782 ft | 2 kts | 86° |
| 2026-04-28 11:31 | 45.63886 | 5.88339 | 782 ft | 1 kts | 86° |